Pagrindinis puslapis
METAR-TAF:

METAR-TAF

Oro uostai :

Zaporožė, Ukraina

platuma: 47-52-02N, ilguma: 035-18-59E, Aukštis: 114 m

Dabartinis oras

Ataskaita buvo paskelbta 27 minutes, ne 04:30 UTC
Vėjas 4 kt iš Šiaurės
Temperatūra 5°C
Drėgmė 41%
Slėgis 1034 hPa
Matomumas 10 km arba daugiau
nėra debesų žemiau 1500 m ir nėra kamuolinių lietaus debesų

METAR: UKDE 070430Z 35002MPS CAVOK 05/M07 Q1034 R02R/090070 NOSIG

Laikas: 07:57 (04:57 UTC)

Prognozė

Ataskaita buvo paskelbta 2 valandos ir 55 minutes, ne 02:02 UTC
Prognozė galioja nuo 07 metu 03 UTC su 07 metu 12 UTC
Vėjas 6 kt iš Šiaurės/Šiaurės Vakarų
Matomumas 10 km arba daugiau
nėra debesų žemiau 1500 m ir nėra kamuolinių lietaus debesų
Laikinai
nuo 07 metu 06 UTC su 07 metu 12 UTC
Vėjas 14 kt iš Šiaurės su gūsio iki 23 kt

TAF: UKDE 070202Z 0703/0712 34003MPS CAVOK TX14/0712Z TN02/0703Z TEMPO 0706/0712 01007G12MPS

Orai ataskaitas ir orų prognozės (METAR, TAF).

turimą stotys yra geltonos ir raudonos taškus žemėlapyje.

Perkelti pele per norėdami pamatyti stoties vardą.

Tada spustelėkite, norėdami matyti oro stebėjimo ir prognozės.

Norėdami pakeisti žemėlapį: spustelėkite ant žalios mygtukų su juodo kryžiaus žemyn,; žalią mygtuką su brūkšneliu, jei norite nutolinti; arba žalių rodyklių gretimoms žemėlapius.


METAR-TAF: